Hauptseite
METAR-TAF:

METAR-TAF

Flughäfen :

Flughafen N’Djamena

N’Djamena, Tschad

Breite: 12-08N, Länge: 015-02E, Höhe: 295 m

Beobachtung

Neuester Wetterbericht von vor 30 Minuten, um 21:00 UTC
Wind 2 kt aus Nordwest
Temperatur 25°C
Luftfeuchtigkeit 36%
Luftdruck 1010 hPa
Sichtweite 10 km oder mehr
keine Wolken unter 1500 m und keine Kumulonimbus oder Gewitterwolken

METAR: FTTJ 142100Z 32002KT CAVOK 25/09 Q1010 NOSIG

Zeit: 22:30 (21:30 UTC)

Prognose

Neuester Wetterbericht von vor 10 Stunden und 30 Minuten, um 11:00 UTC
Gültige Prognose vom 14 um 12 UTC bis 15 um 18 UTC
Wind 8 kt aus Nordost
Sichtweite: 8000 m
Zeitweise
vom 14 um 16 UTC bis 15 um 06 UTC
Wind 4 kt aus unterschiedlichen Richtungen
Sichtweite: 4000 m
trockener Dunst

TAF: FTTJ 141100Z 1412/1518 04008KT 8000 NSC TEMPO 1416/1506 VRB04KT 4000 HZ

Wetterbeobachtungen und Prognosen von mehr als 4000 Flughäfen (METAR und TAF Bericht).

Die verfügbaren Stationen werden durch gelbe und rote Markierungen auf der Karte dargestellt.

Führen Sie die Maus auf sie, um den Namen der Station zu sehen.

Darauf klicken, um die Beobachtung von Wetterbeobachtungen und Prognosen zu sehen.

Um die Karte zu ändern : klicken Sie auf den grünen Tasten mit einem schwarzen Kreuz Zum Vergrößern, auf den grünen Button mit einem Gedankenstrich zu verkleinern, oder auf die grünen Pfeile für benachbarte Karten.


METAR-TAF: